Station Historical Data
Daily Summary for May 6, 2017 Units:  Both    English   Metric
« Previous Day
Next Day »
Daily Weekly Monthly Yearly Custom
  High: Low: Average:
Temperature: 46.6 °F /  8.1 °C 40.3 °F /  4.6 °C 43.6 °F /  6.4 °C
Dew Point: 45.2 °F /  7.3 °C 38.4 °F /  3.6 °C 41.7 °F /  5.4 °C
Humidity: 95% 90% 93%
Wind Speed: 11.0mph /  17.7km/h - 4.1mph /  6.6km/h
Wind Gust: 14.0mph /  22.5km/h - -
Wind- - WNW
Pressure: 29.52 in /  999.5 hPa 29.34 in /  993.5 hPa -
Precipitation: 0.00 in /  0 mm    
Historical Graphs
 
 
Tabular Data for May 6, 2017
Time Temperature Dew Point Pressure Wind Wind Speed Wind Gust Humidity Rainfall Rate (Hourly)
00:04 46.5 °F /  8.1 °C 45.1 °F /  7.3 °C 29.42in /  996.2hPa NW 2.0mph /  3.2km/h 7.0mph /  11.3km/h 95% 0.04in /  1.02mm
00:09 46.6 °F /  8.1 °C 45.2 °F /  7.3 °C 29.42in /  996.2hPa NNW 2.0mph /  3.2km/h 5.0mph /  8km/h 95% 0.04in /  1.02mm
00:14 46.6 °F /  8.1 °C 45.2 °F /  7.3 °C 29.42in /  996.2hPa NNW 2.0mph /  3.2km/h 4.0mph /  6.4km/h 95% 0.05in /  1.27mm
00:19 46.5 °F /  8.1 °C 45.1 °F /  7.3 °C 29.41in /  995.8hPa NNW 2.0mph /  3.2km/h 7.0mph /  11.3km/h 95% 0.05in /  1.27mm
00:24 46.6 °F /  8.1 °C 45.2 °F /  7.3 °C 29.41in /  995.8hPa NNW 2.0mph /  3.2km/h 7.0mph /  11.3km/h 95% 0.05in /  1.27mm
00:29 46.5 °F /  8.1 °C 45.1 °F /  7.3 °C 29.40in /  995.5hPa NNW 2.0mph /  3.2km/h 4.0mph /  6.4km/h 95% 0.05in /  1.27mm
00:34 46.5 °F /  8.1 °C 45.1 °F /  7.3 °C 29.39in /  995.1hPa NNW 7.0mph /  11.3km/h 10.0mph /  16.1km/h 95% 0.05in /  1.27mm
00:39 46.5 °F /  8.1 °C 45.1 °F /  7.3 °C 29.39in /  995.1hPa North 4.0mph /  6.4km/h 12.0mph /  19.3km/h 95% 0.05in /  1.27mm
00:44 46.4 °F /  8 °C 45.0 °F /  7.2 °C 29.39in /  995.1hPa NNE 2.0mph /  3.2km/h 9.0mph /  14.5km/h 95% 0.06in /  1.52mm
00:49 46.3 °F /  7.9 °C 44.9 °F /  7.2 °C 29.39in /  995.1hPa NE 4.0mph /  6.4km/h 7.0mph /  11.3km/h 95% 0.07in /  1.78mm
00:54 46.3 °F /  7.9 °C 44.9 °F /  7.2 °C 29.38in /  994.8hPa NE 3.0mph /  4.8km/h 7.0mph /  11.3km/h 95% 0.07in /  1.78mm
00:59 46.3 °F /  7.9 °C 44.9 °F /  7.2 °C 29.38in /  994.8hPa NNE 2.0mph /  3.2km/h 4.0mph /  6.4km/h 95% 0.08in /  2.03mm
01:04 46.3 °F /  7.9 °C 44.9 °F /  7.2 °C 29.38in /  994.8hPa NNE 3.0mph /  4.8km/h 6.0mph /  9.7km/h 95% 0.08in /  2.03mm
01:09 46.2 °F /  7.9 °C 44.8 °F /  7.1 °C 29.38in /  994.8hPa NNE 4.0mph /  6.4km/h 8.0mph /  12.9km/h 95% 0.09in /  2.29mm
01:14 46.2 °F /  7.9 °C 44.8 °F /  7.1 °C 29.36in /  994.1hPa NNE 4.0mph /  6.4km/h 8.0mph /  12.9km/h 95% 0.08in /  2.03mm
01:19 46.1 °F /  7.8 °C 44.7 °F /  7.1 °C 29.37in /  994.5hPa North 4.0mph /  6.4km/h 11.0mph /  17.7km/h 95% 0.09in /  2.29mm
01:24 46.1 °F /  7.8 °C 44.7 °F /  7.1 °C 29.37in /  994.5hPa NW 3.0mph /  4.8km/h 7.0mph /  11.3km/h 95% 0.08in /  2.03mm
01:29 46.0 °F /  7.8 °C 44.6 °F /  7 °C 29.36in /  994.1hPa NNE 2.0mph /  3.2km/h 7.0mph /  11.3km/h 95% 0.07in /  1.78mm
01:34 46.0 °F /  7.8 °C 44.6 °F /  7 °C 29.36in /  994.1hPa North 3.0mph /  4.8km/h 10.0mph /  16.1km/h 95% 0.06in /  1.52mm
01:39 45.9 °F /  7.7 °C 44.5 °F /  6.9 °C 29.36in /  994.1hPa North 3.0mph /  4.8km/h 10.0mph /  16.1km/h 95% 0.05in /  1.27mm
01:44 46.0 °F /  7.8 °C 44.6 °F /  7 °C 29.37in /  994.5hPa NNW 2.0mph /  3.2km/h 7.0mph /  11.3km/h 95% 0.04in /  1.02mm
01:49 46.0 °F /  7.8 °C 44.6 °F /  7 °C 29.39in /  995.1hPa West 3.0mph /  4.8km/h 7.0mph /  11.3km/h 95% 0.03in /  0.76mm
01:54 46.0 °F /  7.8 °C 44.6 °F /  7 °C 29.39in /  995.1hPa West 3.0mph /  4.8km/h 7.0mph /  11.3km/h 95% 0.03in /  0.76mm
01:59 46.0 °F /  7.8 °C 44.6 °F /  7 °C 29.39in /  995.1hPa West 4.0mph /  6.4km/h 8.0mph /  12.9km/h 95% 0.02in /  0.51mm
02:04 46.0 °F /  7.8 °C 44.6 °F /  7 °C 29.38in /  994.8hPa WNW 3.0mph /  4.8km/h 8.0mph /  12.9km/h 95% 0.02in /  0.51mm
02:09 45.9 °F /  7.7 °C 44.5 °F /  6.9 °C 29.38in /  994.8hPa West 5.0mph /  8km/h 9.0mph /  14.5km/h 95% 0.01in /  0.25mm
02:14 45.8 °F /  7.7 °C 44.4 °F /  6.9 °C 29.38in /  994.8hPa West 2.0mph /  3.2km/h 6.0mph /  9.7km/h 95% 0.01in /  0.25mm
02:19 45.7 °F /  7.6 °C 44.4 °F /  6.9 °C 29.39in /  995.1hPa North 2.0mph /  3.2km/h 7.0mph /  11.3km/h 95% 0.00in /  0mm
02:24 45.7 °F /  7.6 °C 44.4 °F /  6.9 °C 29.40in /  995.5hPa WNW 3.0mph /  4.8km/h 5.0mph /  8km/h 95% 0.01in /  0.25mm
02:29 45.7 °F /  7.6 °C 44.4 °F /  6.9 °C 29.39in /  995.1hPa WNW 3.0mph /  4.8km/h 6.0mph /  9.7km/h 95% 0.01in /  0.25mm
02:34 45.7 °F /  7.6 °C 44.4 °F /  6.9 °C 29.39in /  995.1hPa NW 3.0mph /  4.8km/h 6.0mph /  9.7km/h 95% 0.01in /  0.25mm
02:39 45.7 °F /  7.6 °C 44.4 °F /  6.9 °C 29.39in /  995.1hPa NW 2.0mph /  3.2km/h 6.0mph /  9.7km/h 95% 0.01in /  0.25mm
02:44 45.6 °F /  7.6 °C 44.3 °F /  6.8 °C 29.39in /  995.1hPa WNW 2.0mph /  3.2km/h 7.0mph /  11.3km/h 95% 0.01in /  0.25mm
02:49 45.6 °F /  7.6 °C 44.3 °F /  6.8 °C 29.38in /  994.8hPa NNW 2.0mph /  3.2km/h 7.0mph /  11.3km/h 95% 0.01in /  0.25mm
02:54 45.6 °F /  7.6 °C 44.3 °F /  6.8 °C 29.38in /  994.8hPa NW 3.0mph /  4.8km/h 8.0mph /  12.9km/h 95% 0.01in /  0.25mm
02:59 45.5 °F /  7.5 °C 44.2 °F /  6.8 °C 29.38in /  994.8hPa NW 3.0mph /  4.8km/h 7.0mph /  11.3km/h 95% 0.01in /  0.25mm
03:04 45.4 °F /  7.4 °C 44.1 °F /  6.7 °C 29.37in /  994.5hPa NNE 1.0mph /  1.6km/h 6.0mph /  9.7km/h 95% 0.01in /  0.25mm
03:09 45.2 °F /  7.3 °C 43.9 °F /  6.6 °C 29.37in /  994.5hPa NNW 2.0mph /  3.2km/h 9.0mph /  14.5km/h 95% 0.01in /  0.25mm
03:14 45.2 °F /  7.3 °C 43.9 °F /  6.6 °C 29.36in /  994.1hPa North 3.0mph /  4.8km/h 7.0mph /  11.3km/h 95% 0.01in /  0.25mm
03:19 45.2 °F /  7.3 °C 43.9 °F /  6.6 °C 29.35in /  993.8hPa NNW 2.0mph /  3.2km/h 9.0mph /  14.5km/h 95% 0.01in /  0.25mm
03:24 45.0 °F /  7.2 °C 43.7 °F /  6.5 °C 29.34in /  993.5hPa North 2.0mph /  3.2km/h 8.0mph /  12.9km/h 95% 0.00in /  0mm
03:29 44.9 °F /  7.2 °C 43.6 °F /  6.4 °C 29.34in /  993.5hPa North 4.0mph /  6.4km/h 8.0mph /  12.9km/h 95% 0.00in /  0mm
03:34 44.8 °F /  7.1 °C 43.5 °F /  6.4 °C 29.34in /  993.5hPa North 4.0mph /  6.4km/h 9.0mph /  14.5km/h 95% 0.00in /  0mm
03:39 44.7 °F /  7.1 °C 43.4 °F /  6.3 °C 29.34in /  993.5hPa NNW 4.0mph /  6.4km/h 10.0mph /  16.1km/h 95% 0.00in /  0mm
03:44 44.7 °F /  7.1 °C 43.4 °F /  6.3 °C 29.34in /  993.5hPa North 3.0mph /  4.8km/h 10.0mph /  16.1km/h 95% 0.00in /  0mm
03:49 44.6 °F /  7 °C 43.3 °F /  6.3 °C 29.34in /  993.5hPa NNW 2.0mph /  3.2km/h 6.0mph /  9.7km/h 95% 0.00in /  0mm
03:54 44.6 °F /  7 °C 43.3 °F /  6.3 °C 29.35in /  993.8hPa NW 2.0mph /  3.2km/h 5.0mph /  8km/h 95% 0.00in /  0mm
03:59 44.5 °F /  6.9 °C 43.2 °F /  6.2 °C 29.35in /  993.8hPa NW 2.0mph /  3.2km/h 5.0mph /  8km/h 95% 0.00in /  0mm
04:04 44.5 °F /  6.9 °C 43.2 °F /  6.2 °C 29.34in /  993.5hPa NW 2.0mph /  3.2km/h 7.0mph /  11.3km/h 95% 0.00in /  0mm
04:09 44.4 °F /  6.9 °C 43.1 °F /  6.2 °C 29.35in /  993.8hPa NNW 2.0mph /  3.2km/h 7.0mph /  11.3km/h 95% 0.00in /  0mm
04:14 44.4 °F /  6.9 °C 43.1 °F /  6.2 °C 29.37in /  994.5hPa WNW 1.0mph /  1.6km/h 6.0mph /  9.7km/h 95% 0.00in /  0mm
04:19 44.5 °F /  6.9 °C 43.2 °F /  6.2 °C 29.37in /  994.5hPa WNW 3.0mph /  4.8km/h 4.0mph /  6.4km/h 95% 0.00in /  0mm
04:24 44.5 °F /  6.9 °C 43.2 °F /  6.2 °C 29.37in /  994.5hPa Calm   7.0mph /  11.3km/h 95% 0.00in /  0mm
04:29 44.5 °F /  6.9 °C 43.2 °F /  6.2 °C 29.37in /  994.5hPa West 6.0mph /  9.7km/h 7.0mph /  11.3km/h 95% 0.00in /  0mm
04:34 44.4 °F /  6.9 °C 43.1 °F /  6.2 °C 29.38in /  994.8hPa West 4.0mph /  6.4km/h 7.0mph /  11.3km/h 95% 0.00in /  0mm
04:39 44.5 °F /  6.9 °C 43.2 °F /  6.2 °C 29.38in /  994.8hPa WNW 3.0mph /  4.8km/h 6.0mph /  9.7km/h 95% 0.00in /  0mm
04:44 44.4 °F /  6.9 °C 43.1 °F /  6.2 °C 29.38in /  994.8hPa WNW 1.0mph /  1.6km/h 6.0mph /  9.7km/h 95% 0.00in /  0mm
04:49 44.4 °F /  6.9 °C 43.1 °F /  6.2 °C 29.38in /  994.8hPa NW 2.0mph /  3.2km/h 6.0mph /  9.7km/h 95% 0.01in /  0.25mm
04:54 44.5 °F /  6.9 °C 43.2 °F /  6.2 °C 29.38in /  994.8hPa NW 6.0mph /  9.7km/h 6.0mph /  9.7km/h 95% 0.01in /  0.25mm
04:59 44.4 °F /  6.9 °C 43.1 °F /  6.2 °C 29.37in /  994.5hPa WNW 4.0mph /  6.4km/h 5.0mph /  8km/h 95% 0.01in /  0.25mm
05:04 44.4 °F /  6.9 °C 43.1 °F /  6.2 °C 29.37in /  994.5hPa WNW 3.0mph /  4.8km/h 6.0mph /  9.7km/h 95% 0.02in /  0.51mm
05:09 44.4 °F /  6.9 °C 43.1 °F /  6.2 °C 29.38in /  994.8hPa WNW 3.0mph /  4.8km/h 6.0mph /  9.7km/h 95% 0.02in /  0.51mm
05:14 44.4 °F /  6.9 °C 43.1 °F /  6.2 °C 29.38in /  994.8hPa West 2.0mph /  3.2km/h 6.0mph /  9.7km/h 95% 0.02in /  0.51mm
05:19 44.5 °F /  6.9 °C 43.2 °F /  6.2 °C 29.37in /  994.5hPa West 4.0mph /  6.4km/h 4.0mph /  6.4km/h 95% 0.02in /  0.51mm
05:24 44.3 °F /  6.8 °C 43.0 °F /  6.1 °C 29.37in /  994.5hPa West 3.0mph /  4.8km/h 6.0mph /  9.7km/h 95% 0.02in /  0.51mm
05:29 44.3 °F /  6.8 °C 43.0 °F /  6.1 °C 29.37in /  994.5hPa WNW 5.0mph /  8km/h 7.0mph /  11.3km/h 95% 0.03in /  0.76mm
05:34 44.1 °F /  6.7 °C 42.8 °F /  6 °C 29.36in /  994.1hPa NNW 2.0mph /  3.2km/h 9.0mph /  14.5km/h 95% 0.03in /  0.76mm
05:39 43.9 °F /  6.6 °C 42.3 °F /  5.7 °C 29.36in /  994.1hPa Calm   9.0mph /  14.5km/h 94% 0.03in /  0.76mm
05:44 43.8 °F /  6.6 °C 42.2 °F /  5.7 °C 29.36in /  994.1hPa West 6.0mph /  9.7km/h 10.0mph /  16.1km/h 94% 0.03in /  0.76mm
05:49 43.4 °F /  6.3 °C 42.1 °F /  5.6 °C 29.36in /  994.1hPa West 5.0mph /  8km/h 7.0mph /  11.3km/h 95% 0.02in /  0.51mm
05:54 43.1 °F /  6.2 °C 41.5 °F /  5.3 °C 29.36in /  994.1hPa NW 2.0mph /  3.2km/h 8.0mph /  12.9km/h 94% 0.02in /  0.51mm
05:59 42.9 °F /  6.1 °C 41.3 °F /  5.2 °C 29.37in /  994.5hPa NW 2.0mph /  3.2km/h 9.0mph /  14.5km/h 94% 0.02in /  0.51mm
06:04 42.9 °F /  6.1 °C 41.6 °F /  5.3 °C 29.37in /  994.5hPa NW 3.0mph /  4.8km/h 10.0mph /  16.1km/h 95% 0.01in /  0.25mm
06:09 42.8 °F /  6 °C 41.5 °F /  5.3 °C 29.38in /  994.8hPa NW 4.0mph /  6.4km/h 10.0mph /  16.1km/h 95% 0.01in /  0.25mm
06:14 42.8 °F /  6 °C 41.2 °F /  5.1 °C 29.38in /  994.8hPa NW 3.0mph /  4.8km/h 10.0mph /  16.1km/h 94% 0.01in /  0.25mm
06:19 42.8 °F /  6 °C 41.2 °F /  5.1 °C 29.38in /  994.8hPa WNW 3.0mph /  4.8km/h 7.0mph /  11.3km/h 94% 0.01in /  0.25mm
06:24 42.8 °F /  6 °C 41.5 °F /  5.3 °C 29.37in /  994.5hPa WNW 3.0mph /  4.8km/h 8.0mph /  12.9km/h 95% 0.01in /  0.25mm
06:29 42.8 °F /  6 °C 41.2 °F /  5.1 °C 29.38in /  994.8hPa NW 3.0mph /  4.8km/h 8.0mph /  12.9km/h 94% 0.00in /  0mm
06:34 42.7 °F /  5.9 °C 41.1 °F /  5.1 °C 29.38in /  994.8hPa WNW 3.0mph /  4.8km/h 7.0mph /  11.3km/h 94% 0.00in /  0mm
06:39 42.6 °F /  5.9 °C 41.0 °F /  5 °C 29.37in /  994.5hPa WNW 1.0mph /  1.6km/h 5.0mph /  8km/h 94% 0.00in /  0mm
06:44 42.7 °F /  5.9 °C 41.1 °F /  5.1 °C 29.37in /  994.5hPa West 7.0mph /  11.3km/h 8.0mph /  12.9km/h 94% 0.00in /  0mm
06:49 42.5 °F /  5.8 °C 40.9 °F /  4.9 °C 29.37in /  994.5hPa WNW 5.0mph /  8km/h 10.0mph /  16.1km/h 94% 0.00in /  0mm
06:54 42.5 °F /  5.8 °C 41.2 °F /  5.1 °C 29.38in /  994.8hPa WNW 4.0mph /  6.4km/h 10.0mph /  16.1km/h 95% 0.00in /  0mm
06:59 42.5 °F /  5.8 °C 41.2 °F /  5.1 °C 29.38in /  994.8hPa NW 4.0mph /  6.4km/h 10.0mph /  16.1km/h 95% 0.00in /  0mm
07:04 42.6 °F /  5.9 °C 41.3 °F /  5.2 °C 29.38in /  994.8hPa WNW 4.0mph /  6.4km/h 10.0mph /  16.1km/h 95% 0.00in /  0mm
07:09 42.5 °F /  5.8 °C 41.2 °F /  5.1 °C 29.39in /  995.1hPa NW 4.0mph /  6.4km/h 9.0mph /  14.5km/h 95% 0.00in /  0mm
07:14 42.5 °F /  5.8 °C 41.2 °F /  5.1 °C 29.39in /  995.1hPa NW 3.0mph /  4.8km/h 9.0mph /  14.5km/h 95% 0.00in /  0mm
07:19 42.5 °F /  5.8 °C 41.2 °F /  5.1 °C 29.39in /  995.1hPa WNW 3.0mph /  4.8km/h 10.0mph /  16.1km/h 95% 0.00in /  0mm
07:24 42.5 °F /  5.8 °C 41.2 °F /  5.1 °C 29.39in /  995.1hPa NW 4.0mph /  6.4km/h 8.0mph /  12.9km/h 95% 0.00in /  0mm
07:29 42.5 °F /  5.8 °C 41.2 °F /  5.1 °C 29.39in /  995.1hPa NW 3.0mph /  4.8km/h 6.0mph /  9.7km/h 95% 0.00in /  0mm
07:34 42.5 °F /  5.8 °C 41.2 °F /  5.1 °C 29.40in /  995.5hPa NW 3.0mph /  4.8km/h 8.0mph /  12.9km/h 95% 0.00in /  0mm
07:39 42.5 °F /  5.8 °C 41.2 °F /  5.1 °C 29.40in /  995.5hPa NW 2.0mph /  3.2km/h 8.0mph /  12.9km/h 95% 0.00in /  0mm
07:44 42.7 °F /  5.9 °C 41.4 °F /  5.2 °C 29.40in /  995.5hPa NW 3.0mph /  4.8km/h 3.0mph /  4.8km/h 95% 0.00in /  0mm
07:49 42.6 °F /  5.9 °C 41.3 °F /  5.2 °C 29.39in /  995.1hPa NW 2.0mph /  3.2km/h 9.0mph /  14.5km/h 95% 0.00in /  0mm
07:54 42.5 °F /  5.8 °C 41.2 °F /  5.1 °C 29.39in /  995.1hPa NW 4.0mph /  6.4km/h 9.0mph /  14.5km/h 95% 0.00in /  0mm
07:59 42.5 °F /  5.8 °C 41.2 °F /  5.1 °C 29.39in /  995.1hPa NW 4.0mph /  6.4km/h 7.0mph /  11.3km/h 95% 0.00in /  0mm
08:04 42.5 °F /  5.8 °C 41.2 °F /  5.1 °C 29.38in /  994.8hPa WNW 2.0mph /  3.2km/h 6.0mph /  9.7km/h 95% 0.00in /  0mm
08:09 42.7 °F /  5.9 °C 41.4 °F /  5.2 °C 29.38in /  994.8hPa NW 2.0mph /  3.2km/h 9.0mph /  14.5km/h 95% 0.00in /  0mm
08:14 42.7 °F /  5.9 °C 41.4 °F /  5.2 °C 29.38in /  994.8hPa West 6.0mph /  9.7km/h 9.0mph /  14.5km/h 95% 0.00in /  0mm
08:19 42.8 °F /  6 °C 41.5 °F /  5.3 °C 29.38in /  994.8hPa WNW 6.0mph /  9.7km/h 9.0mph /  14.5km/h 95% 0.00in /  0mm
08:24 42.8 °F /  6 °C 41.2 °F /  5.1 °C 29.38in /  994.8hPa West 9.0mph /  14.5km/h 9.0mph /  14.5km/h 94% 0.00in /  0mm
08:29 42.9 °F /  6.1 °C 41.6 °F /  5.3 °C 29.38in /  994.8hPa North 3.0mph /  4.8km/h 10.0mph /  16.1km/h 95% 0.00in /  0mm
08:34 42.8 °F /  6 °C 41.5 °F /  5.3 °C 29.37in /  994.5hPa NW 3.0mph /  4.8km/h 10.0mph /  16.1km/h 95% 0.00in /  0mm
08:39 42.8 °F /  6 °C 41.5 °F /  5.3 °C 29.37in /  994.5hPa NW 3.0mph /  4.8km/h 7.0mph /  11.3km/h 95% 0.00in /  0mm
08:44 42.9 °F /  6.1 °C 41.6 °F /  5.3 °C 29.38in /  994.8hPa WNW 4.0mph /  6.4km/h 8.0mph /  12.9km/h 95% 0.00in /  0mm
08:49 42.8 °F /  6 °C 41.5 °F /  5.3 °C 29.38in /  994.8hPa WNW 4.0mph /  6.4km/h 8.0mph /  12.9km/h 95% 0.00in /  0mm
08:54 42.7 °F /  5.9 °C 41.1 °F /  5.1 °C 29.38in /  994.8hPa NW 4.0mph /  6.4km/h 8.0mph /  12.9km/h 94% 0.00in /  0mm
08:59 42.6 °F /  5.9 °C 41.0 °F /  5 °C 29.38in /  994.8hPa North 5.0mph /  8km/h 8.0mph /  12.9km/h 94% 0.00in /  0mm
09:04 42.7 °F /  5.9 °C 41.1 °F /  5.1 °C 29.39in /  995.1hPa WNW 4.0mph /  6.4km/h 8.0mph /  12.9km/h 94% 0.00in /  0mm
09:09 42.7 °F /  5.9 °C 41.1 °F /  5.1 °C 29.39in /  995.1hPa WNW 4.0mph /  6.4km/h 8.0mph /  12.9km/h 94% 0.00in /  0mm
09:14 42.7 °F /  5.9 °C 41.1 °F /  5.1 °C 29.39in /  995.1hPa NW 3.0mph /  4.8km/h 7.0mph /  11.3km/h 94% 0.00in /  0mm
09:19 42.8 °F /  6 °C 41.2 °F /  5.1 °C 29.39in /  995.1hPa NW 2.0mph /  3.2km/h 8.0mph /  12.9km/h 94% 0.00in /  0mm
09:24 42.9 °F /  6.1 °C 41.3 °F /  5.2 °C 29.39in /  995.1hPa WNW 2.0mph /  3.2km/h 8.0mph /  12.9km/h 94% 0.00in /  0mm
09:29 43.1 °F /  6.2 °C 41.5 °F /  5.3 °C 29.39in /  995.1hPa WNW 3.0mph /  4.8km/h 7.0mph /  11.3km/h 94% 0.00in /  0mm
09:34 43.2 °F /  6.2 °C 41.6 °F /  5.3 °C 29.38in /  994.8hPa WNW 3.0mph /  4.8km/h 9.0mph /  14.5km/h 94% 0.00in /  0mm
09:39 43.1 °F /  6.2 °C 41.5 °F /  5.3 °C 29.38in /  994.8hPa NW 2.0mph /  3.2km/h 10.0mph /  16.1km/h 94% 0.00in /  0mm
09:44 43.1 °F /  6.2 °C 41.5 °F /  5.3 °C 29.38in /  994.8hPa WNW 6.0mph /  9.7km/h 10.0mph /  16.1km/h 94% 0.00in /  0mm
09:49 43.1 °F /  6.2 °C 41.5 °F /  5.3 °C 29.39in /  995.1hPa WNW 5.0mph /  8km/h 10.0mph /  16.1km/h 94% 0.00in /  0mm
09:54 42.9 °F /  6.1 °C 41.0 °F /  5 °C 29.38in /  994.8hPa WNW 2.0mph /  3.2km/h 9.0mph /  14.5km/h 93% 0.00in /  0mm
09:59 42.9 °F /  6.1 °C 41.0 °F /  5 °C 29.38in /  994.8hPa WNW 5.0mph /  8km/h 8.0mph /  12.9km/h 93% 0.00in /  0mm
10:04 43.1 °F /  6.2 °C 41.5 °F /  5.3 °C 29.39in /  995.1hPa WNW 4.0mph /  6.4km/h 8.0mph /  12.9km/h 94% 0.00in /  0mm
10:09 43.2 °F /  6.2 °C 41.6 °F /  5.3 °C 29.39in /  995.1hPa WNW 2.0mph /  3.2km/h 6.0mph /  9.7km/h 94% 0.00in /  0mm
10:14 43.0 °F /  6.1 °C 41.1 °F /  5.1 °C 29.39in /  995.1hPa WNW 3.0mph /  4.8km/h 8.0mph /  12.9km/h 93% 0.00in /  0mm
10:19 43.0 °F /  6.1 °C 41.1 °F /  5.1 °C 29.39in /  995.1hPa NW 4.0mph /  6.4km/h 8.0mph /  12.9km/h 93% 0.00in /  0mm
10:24 42.9 °F /  6.1 °C 41.0 °F /  5 °C 29.39in /  995.1hPa NW 4.0mph /  6.4km/h 11.0mph /  17.7km/h 93% 0.00in /  0mm
10:29 43.0 °F /  6.1 °C 41.1 °F /  5.1 °C 29.39in /  995.1hPa NW 4.0mph /  6.4km/h 11.0mph /  17.7km/h 93% 0.00in /  0mm
10:34 43.4 °F /  6.3 °C 41.5 °F /  5.3 °C 29.39in /  995.1hPa NNW 5.0mph /  8km/h 5.0mph /  8km/h 93% 0.00in /  0mm
10:39 43.2 °F /  6.2 °C 41.3 °F /  5.2 °C 29.39in /  995.1hPa NNW 3.0mph /  4.8km/h 9.0mph /  14.5km/h 93% 0.00in /  0mm
10:44 43.4 °F /  6.3 °C 41.5 °F /  5.3 °C 29.39in /  995.1hPa NNW 3.0mph /  4.8km/h 5.0mph /  8km/h 93% 0.00in /  0mm
10:49 43.3 °F /  6.3 °C 41.4 °F /  5.2 °C 29.39in /  995.1hPa NW 2.0mph /  3.2km/h 10.0mph /  16.1km/h 93% 0.00in /  0mm
10:54 43.4 °F /  6.3 °C 41.5 °F /  5.3 °C 29.39in /  995.1hPa West 1.0mph /  1.6km/h 7.0mph /  11.3km/h 93% 0.00in /  0mm
10:59 43.6 °F /  6.4 °C 41.4 °F /  5.2 °C 29.39in /  995.1hPa West 2.0mph /  3.2km/h 5.0mph /  8km/h 92% 0.00in /  0mm
11:04 43.6 °F /  6.4 °C 41.4 °F /  5.2 °C 29.39in /  995.1hPa WNW 5.0mph /  8km/h 8.0mph /  12.9km/h 92% 0.00in /  0mm
11:09 43.5 °F /  6.4 °C 41.3 °F /  5.2 °C 29.39in /  995.1hPa WNW 4.0mph /  6.4km/h 8.0mph /  12.9km/h 92% 0.00in /  0mm
11:14 43.6 °F /  6.4 °C 41.4 °F /  5.2 °C 29.39in /  995.1hPa WNW 4.0mph /  6.4km/h 8.0mph /  12.9km/h 92% 0.00in /  0mm
11:19 43.7 °F /  6.5 °C 41.5 °F /  5.3 °C 29.39in /  995.1hPa WNW 4.0mph /  6.4km/h 8.0mph /  12.9km/h 92% 0.00in /  0mm
11:24 43.8 °F /  6.6 °C 41.6 °F /  5.3 °C 29.39in /  995.1hPa WNW 4.0mph /  6.4km/h 7.0mph /  11.3km/h 92% 0.00in /  0mm
11:29 43.8 °F /  6.6 °C 41.6 °F /  5.3 °C 29.39in /  995.1hPa WNW 4.0mph /  6.4km/h 9.0mph /  14.5km/h 92% 0.00in /  0mm
11:34 43.8 °F /  6.6 °C 41.6 °F /  5.3 °C 29.39in /  995.1hPa WNW 4.0mph /  6.4km/h 8.0mph /  12.9km/h 92% 0.00in /  0mm
11:39 44.1 °F /  6.7 °C 41.9 °F /  5.5 °C 29.39in /  995.1hPa NW 3.0mph /  4.8km/h 6.0mph /  9.7km/h 92% 0.00in /  0mm
11:44 44.1 °F /  6.7 °C 41.9 °F /  5.5 °C 29.39in /  995.1hPa WNW 1.0mph /  1.6km/h 8.0mph /  12.9km/h 92% 0.00in /  0mm
11:49 43.9 °F /  6.6 °C 41.7 °F /  5.4 °C 29.39in /  995.1hPa WNW 3.0mph /  4.8km/h 8.0mph /  12.9km/h 92% 0.00in /  0mm
11:54 43.8 °F /  6.6 °C 41.6 °F /  5.3 °C 29.39in /  995.1hPa WNW 6.0mph /  9.7km/h 8.0mph /  12.9km/h 92% 0.00in /  0mm
11:59 43.9 °F /  6.6 °C 41.7 °F /  5.4 °C 29.39in /  995.1hPa West 9.0mph /  14.5km/h 11.0mph /  17.7km/h 92% 0.00in /  0mm
12:04 43.7 °F /  6.5 °C 41.5 °F /  5.3 °C 29.39in /  995.1hPa West 6.0mph /  9.7km/h 9.0mph /  14.5km/h 92% 0.00in /  0mm
12:09 43.8 °F /  6.6 °C 41.6 °F /  5.3 °C 29.39in /  995.1hPa WNW 5.0mph /  8km/h 11.0mph /  17.7km/h 92% 0.00in /  0mm
12:14 43.7 °F /  6.5 °C 41.5 °F /  5.3 °C 29.39in /  995.1hPa WNW 5.0mph /  8km/h 10.0mph /  16.1km/h 92% 0.00in /  0mm
12:19 43.8 °F /  6.6 °C 41.6 °F /  5.3 °C 29.39in /  995.1hPa WNW 5.0mph /  8km/h 10.0mph /  16.1km/h 92% 0.00in /  0mm
12:24 43.9 °F /  6.6 °C 41.7 °F /  5.4 °C 29.39in /  995.1hPa WNW 4.0mph /  6.4km/h 9.0mph /  14.5km/h 92% 0.00in /  0mm
12:29 44.0 °F /  6.7 °C 41.8 °F /  5.4 °C 29.39in /  995.1hPa West 1.0mph /  1.6km/h 8.0mph /  12.9km/h 92% 0.00in /  0mm
12:34 44.1 °F /  6.7 °C 41.9 °F /  5.5 °C 29.39in /  995.1hPa West 2.0mph /  3.2km/h 6.0mph /  9.7km/h 92% 0.00in /  0mm
12:39 44.1 °F /  6.7 °C 41.9 °F /  5.5 °C 29.39in /  995.1hPa West 3.0mph /  4.8km/h 7.0mph /  11.3km/h 92% 0.00in /  0mm
12:44 44.3 °F /  6.8 °C 42.4 °F /  5.8 °C 29.39in /  995.1hPa West 5.0mph /  8km/h 5.0mph /  8km/h 93% 0.00in /  0mm
12:49 44.0 °F /  6.7 °C 41.8 °F /  5.4 °C 29.39in /  995.1hPa West 2.0mph /  3.2km/h 7.0mph /  11.3km/h 92% 0.00in /  0mm
12:54 44.0 °F /  6.7 °C 41.8 °F /  5.4 °C 29.39in /  995.1hPa WNW 4.0mph /  6.4km/h 6.0mph /  9.7km/h 92% 0.01in /  0.25mm
12:59 43.8 °F /  6.6 °C 41.6 °F /  5.3 °C 29.39in /  995.1hPa West 2.0mph /  3.2km/h 8.0mph /  12.9km/h 92% 0.01in /  0.25mm
13:04 43.6 °F /  6.4 °C 41.4 °F /  5.2 °C 29.39in /  995.1hPa West 4.0mph /  6.4km/h 8.0mph /  12.9km/h 92% 0.01in /  0.25mm
13:09 43.5 °F /  6.4 °C 41.3 °F /  5.2 °C 29.39in /  995.1hPa WNW 3.0mph /  4.8km/h 8.0mph /  12.9km/h 92% 0.01in /  0.25mm
13:14 43.6 °F /  6.4 °C 41.4 °F /  5.2 °C 29.39in /  995.1hPa West 3.0mph /  4.8km/h 8.0mph /  12.9km/h 92% 0.01in /  0.25mm
13:19 43.7 °F /  6.5 °C 41.5 °F /  5.3 °C 29.39in /  995.1hPa West 4.0mph /  6.4km/h 8.0mph /  12.9km/h 92% 0.01in /  0.25mm
13:24 43.9 °F /  6.6 °C 42.0 °F /  5.6 °C 29.39in /  995.1hPa WNW 3.0mph /  4.8km/h 6.0mph /  9.7km/h 93% 0.02in /  0.51mm
13:29 44.0 °F /  6.7 °C 42.1 °F /  5.6 °C 29.39in /  995.1hPa WNW 4.0mph /  6.4km/h 9.0mph /  14.5km/h 93% 0.02in /  0.51mm
13:34 44.0 °F /  6.7 °C 42.1 °F /  5.6 °C 29.39in /  995.1hPa WNW 9.0mph /  14.5km/h 11.0mph /  17.7km/h 93% 0.03in /  0.76mm
13:39 43.8 °F /  6.6 °C 41.9 °F /  5.5 °C 29.39in /  995.1hPa West 5.0mph /  8km/h 11.0mph /  17.7km/h 93% 0.03in /  0.76mm
13:44 43.9 °F /  6.6 °C 42.0 °F /  5.6 °C 29.39in /  995.1hPa West 4.0mph /  6.4km/h 9.0mph /  14.5km/h 93% 0.03in /  0.76mm
13:49 43.9 °F /  6.6 °C 42.0 °F /  5.6 °C 29.39in /  995.1hPa WNW 4.0mph /  6.4km/h 7.0mph /  11.3km/h 93% 0.03in /  0.76mm
13:54 43.8 °F /  6.6 °C 41.9 °F /  5.5 °C 29.39in /  995.1hPa West 4.0mph /  6.4km/h 10.0mph /  16.1km/h 93% 0.02in /  0.51mm
13:59 43.8 °F /  6.6 °C 41.9 °F /  5.5 °C 29.39in /  995.1hPa WNW 3.0mph /  4.8km/h 9.0mph /  14.5km/h 93% 0.02in /  0.51mm
14:04 43.9 °F /  6.6 °C 42.0 °F /  5.6 °C 29.39in /  995.1hPa West 6.0mph /  9.7km/h 7.0mph /  11.3km/h 93% 0.02in /  0.51mm
14:09 43.9 °F /  6.6 °C 42.0 °F /  5.6 °C 29.40in /  995.5hPa West 4.0mph /  6.4km/h 7.0mph /  11.3km/h 93% 0.02in /  0.51mm
14:14 44.1 °F /  6.7 °C 42.2 °F /  5.7 °C 29.40in /  995.5hPa West 4.0mph /  6.4km/h 8.0mph /  12.9km/h 93% 0.03in /  0.76mm
14:19 44.3 °F /  6.8 °C 42.4 °F /  5.8 °C 29.39in /  995.1hPa West 4.0mph /  6.4km/h 8.0mph /  12.9km/h 93% 0.03in /  0.76mm
14:24 44.2 °F /  6.8 °C 42.3 °F /  5.7 °C 29.40in /  995.5hPa West 3.0mph /  4.8km/h 7.0mph /  11.3km/h 93% 0.02in /  0.51mm
14:29 44.2 °F /  6.8 °C 42.3 °F /  5.7 °C 29.39in /  995.1hPa West 1.0mph /  1.6km/h 8.0mph /  12.9km/h 93% 0.02in /  0.51mm
14:34 44.3 °F /  6.8 °C 42.4 °F /  5.8 °C 29.39in /  995.1hPa West 7.0mph /  11.3km/h 11.0mph /  17.7km/h 93% 0.01in /  0.25mm
14:39 44.1 °F /  6.7 °C 42.2 °F /  5.7 °C 29.40in /  995.5hPa West 8.0mph /  12.9km/h 12.0mph /  19.3km/h 93% 0.01in /  0.25mm
14:44 44.1 °F /  6.7 °C 42.2 °F /  5.7 °C 29.40in /  995.5hPa West 6.0mph /  9.7km/h 12.0mph /  19.3km/h 93% 0.01in /  0.25mm
14:49 44.3 °F /  6.8 °C 42.4 °F /  5.8 °C 29.40in /  995.5hPa West 5.0mph /  8km/h 9.0mph /  14.5km/h 93% 0.01in /  0.25mm
14:54 44.6 °F /  7 °C 42.7 °F /  5.9 °C 29.40in /  995.5hPa West 4.0mph /  6.4km/h 9.0mph /  14.5km/h 93% 0.01in /  0.25mm
14:59 44.5 °F /  6.9 °C 42.6 °F /  5.9 °C 29.40in /  995.5hPa West 5.0mph /  8km/h 10.0mph /  16.1km/h 93% 0.01in /  0.25mm
15:04 44.8 °F /  7.1 °C 42.9 °F /  6.1 °C 29.40in /  995.5hPa West 8.0mph /  12.9km/h 9.0mph /  14.5km/h 93% 0.01in /  0.25mm
15:09 44.9 °F /  7.2 °C 43.0 °F /  6.1 °C 29.40in /  995.5hPa WSW 5.0mph /  8km/h 10.0mph /  16.1km/h 93% 0.01in /  0.25mm
15:14 45.1 °F /  7.3 °C 43.2 °F /  6.2 °C 29.40in /  995.5hPa West 5.0mph /  8km/h 11.0mph /  17.7km/h 93% 0.00in /  0mm
15:19 45.1 °F /  7.3 °C 42.9 °F /  6.1 °C 29.40in /  995.5hPa WNW 6.0mph /  9.7km/h 10.0mph /  16.1km/h 92% 0.00in /  0mm
15:24 44.9 °F /  7.2 °C 42.7 °F /  5.9 °C 29.40in /  995.5hPa West 8.0mph /  12.9km/h 12.0mph /  19.3km/h 92% 0.00in /  0mm
15:29 44.9 °F /  7.2 °C 42.7 °F /  5.9 °C 29.40in /  995.5hPa West 6.0mph /  9.7km/h 14.0mph /  22.5km/h 92% 0.00in /  0mm
15:34 45.0 °F /  7.2 °C 42.8 °F /  6 °C 29.40in /  995.5hPa West 8.0mph /  12.9km/h 12.0mph /  19.3km/h 92% 0.00in /  0mm
15:39 45.2 °F /  7.3 °C 43.0 °F /  6.1 °C 29.40in /  995.5hPa West 6.0mph /  9.7km/h 9.0mph /  14.5km/h 92% 0.00in /  0mm
15:44 45.5 °F /  7.5 °C 43.3 °F /  6.3 °C 29.41in /  995.8hPa West 5.0mph /  8km/h 9.0mph /  14.5km/h 92% 0.00in /  0mm
15:49 45.3 °F /  7.4 °C 42.8 °F /  6 °C 29.40in /  995.5hPa West 5.0mph /  8km/h 14.0mph /  22.5km/h 91% 0.00in /  0mm
15:54 45.2 °F /  7.3 °C 42.7 °F /  5.9 °C 29.41in /  995.8hPa West 6.0mph /  9.7km/h 14.0mph /  22.5km/h 91% 0.00in /  0mm
15:59 44.9 °F /  7.2 °C 42.4 °F /  5.8 °C 29.41in /  995.8hPa West 5.0mph /  8km/h 12.0mph /  19.3km/h 91% 0.00in /  0mm
16:04 44.7 °F /  7.1 °C 41.9 °F /  5.5 °C 29.41in /  995.8hPa West 5.0mph /  8km/h 12.0mph /  19.3km/h 90% 0.00in /  0mm
16:09 44.7 °F /  7.1 °C 42.2 °F /  5.7 °C 29.41in /  995.8hPa WSW 4.0mph /  6.4km/h 10.0mph /  16.1km/h 91% 0.00in /  0mm
16:14 44.6 °F /  7 °C 42.1 °F /  5.6 °C 29.41in /  995.8hPa West 8.0mph /  12.9km/h 14.0mph /  22.5km/h 91% 0.00in /  0mm
16:19 44.7 °F /  7.1 °C 42.2 °F /  5.7 °C 29.41in /  995.8hPa WNW 2.0mph /  3.2km/h 11.0mph /  17.7km/h 91% 0.00in /  0mm
16:24 45.0 °F /  7.2 °C 42.5 °F /  5.8 °C 29.42in /  996.2hPa WNW 6.0mph /  9.7km/h 11.0mph /  17.7km/h 91% 0.01in /  0.25mm
16:34 44.8 °F /  7.1 °C 42.3 °F /  5.7 °C 29.42in /  996.2hPa West 2.0mph /  3.2km/h 12.0mph /  19.3km/h 91% 0.01in /  0.25mm
16:39 44.8 °F /  7.1 °C 42.3 °F /  5.7 °C 29.42in /  996.2hPa West 6.0mph /  9.7km/h 12.0mph /  19.3km/h 91% 0.01in /  0.25mm
16:44 44.8 °F /  7.1 °C 42.3 °F /  5.7 °C 29.42in /  996.2hPa WNW 6.0mph /  9.7km/h 13.0mph /  20.9km/h 91% 0.01in /  0.25mm
16:49 45.1 °F /  7.3 °C 42.9 °F /  6.1 °C 29.42in /  996.2hPa WNW 6.0mph /  9.7km/h 13.0mph /  20.9km/h 92% 0.02in /  0.51mm
16:54 44.8 °F /  7.1 °C 42.3 °F /  5.7 °C 29.42in /  996.2hPa WNW 6.0mph /  9.7km/h 11.0mph /  17.7km/h 91% 0.02in /  0.51mm
16:59 45.2 °F /  7.3 °C 43.0 °F /  6.1 °C 29.42in /  996.2hPa West 9.0mph /  14.5km/h 10.0mph /  16.1km/h 92% 0.02in /  0.51mm
17:04 44.9 °F /  7.2 °C 42.4 °F /  5.8 °C 29.42in /  996.2hPa SW 8.0mph /  12.9km/h 13.0mph /  20.9km/h 91% 0.02in /  0.51mm
17:09 45.1 °F /  7.3 °C 42.6 °F /  5.9 °C 29.42in /  996.2hPa West 6.0mph /  9.7km/h 11.0mph /  17.7km/h 91% 0.02in /  0.51mm
17:14 45.2 °F /  7.3 °C 42.7 °F /  5.9 °C 29.43in /  996.5hPa West 6.0mph /  9.7km/h 12.0mph /  19.3km/h 91% 0.02in /  0.51mm
17:19 44.8 °F /  7.1 °C 42.3 °F /  5.7 °C 29.43in /  996.5hPa West 6.0mph /  9.7km/h 13.0mph /  20.9km/h 91% 0.02in /  0.51mm
17:24 44.8 °F /  7.1 °C 42.3 °F /  5.7 °C 29.43in /  996.5hPa West 6.0mph /  9.7km/h 13.0mph /  20.9km/h 91% 0.02in /  0.51mm
17:29 45.1 °F /  7.3 °C 42.9 °F /  6.1 °C 29.43in /  996.5hPa WNW 5.0mph /  8km/h 10.0mph /  16.1km/h 92% 0.02in /  0.51mm
17:34 45.1 °F /  7.3 °C 42.6 °F /  5.9 °C 29.43in /  996.5hPa WNW 5.0mph /  8km/h 11.0mph /  17.7km/h 91% 0.02in /  0.51mm
17:39 44.8 °F /  7.1 °C 42.3 °F /  5.7 °C 29.43in /  996.5hPa WNW 6.0mph /  9.7km/h 11.0mph /  17.7km/h 91% 0.02in /  0.51mm
17:44 44.7 °F /  7.1 °C 42.2 °F /  5.7 °C 29.43in /  996.5hPa NW 7.0mph /  11.3km/h 10.0mph /  16.1km/h 91% 0.02in /  0.51mm
17:49 44.6 °F /  7 °C 42.1 °F /  5.6 °C 29.43in /  996.5hPa WNW 6.0mph /  9.7km/h 9.0mph /  14.5km/h 91% 0.01in /  0.25mm
17:54 44.5 °F /  6.9 °C 41.7 °F /  5.4 °C 29.43in /  996.5hPa WNW 6.0mph /  9.7km/h 13.0mph /  20.9km/h 90% 0.01in /  0.25mm
17:59 44.5 °F /  6.9 °C 41.7 °F /  5.4 °C 29.44in /  996.8hPa WNW 8.0mph /  12.9km/h 12.0mph /  19.3km/h 90% 0.01in /  0.25mm
18:04 44.6 °F /  7 °C 41.8 °F /  5.4 °C 29.44in /  996.8hPa WNW 7.0mph /  11.3km/h 8.0mph /  12.9km/h 90% 0.01in /  0.25mm
18:09 44.7 °F /  7.1 °C 41.9 °F /  5.5 °C 29.44in /  996.8hPa WNW 5.0mph /  8km/h 13.0mph /  20.9km/h 90% 0.01in /  0.25mm
18:14 44.4 °F /  6.9 °C 41.7 °F /  5.4 °C 29.44in /  996.8hPa WNW 6.0mph /  9.7km/h 13.0mph /  20.9km/h 90% 0.01in /  0.25mm
18:19 44.3 °F /  6.8 °C 41.6 °F /  5.3 °C 29.44in /  996.8hPa WNW 5.0mph /  8km/h 12.0mph /  19.3km/h 90% 0.02in /  0.51mm
18:24 44.1 °F /  6.7 °C 41.4 °F /  5.2 °C 29.44in /  996.8hPa WNW 5.0mph /  8km/h 12.0mph /  19.3km/h 90% 0.01in /  0.25mm
18:29 44.1 °F /  6.7 °C 41.6 °F /  5.3 °C 29.44in /  996.8hPa WNW 5.0mph /  8km/h 12.0mph /  19.3km/h 91% 0.01in /  0.25mm
18:34 44.0 °F /  6.7 °C 41.3 °F /  5.2 °C 29.44in /  996.8hPa WNW 5.0mph /  8km/h 10.0mph /  16.1km/h 90% 0.01in /  0.25mm
18:39 43.9 °F /  6.6 °C 41.2 °F /  5.1 °C 29.45in /  997.2hPa WNW 6.0mph /  9.7km/h 10.0mph /  16.1km/h 90% 0.01in /  0.25mm
18:44 43.8 °F /  6.6 °C 41.3 °F /  5.2 °C 29.45in /  997.2hPa WNW 2.0mph /  3.2km/h 9.0mph /  14.5km/h 91% 0.01in /  0.25mm
18:49 43.6 °F /  6.4 °C 41.1 °F /  5.1 °C 29.45in /  997.2hPa WNW 3.0mph /  4.8km/h 14.0mph /  22.5km/h 91% 0.01in /  0.25mm
18:54 43.6 °F /  6.4 °C 41.1 °F /  5.1 °C 29.45in /  997.2hPa NW 7.0mph /  11.3km/h 12.0mph /  19.3km/h 91% 0.01in /  0.25mm
18:59 43.5 °F /  6.4 °C 41.0 °F /  5 °C 29.45in /  997.2hPa NW 4.0mph /  6.4km/h 13.0mph /  20.9km/h 91% 0.02in /  0.51mm
19:04 43.5 °F /  6.4 °C 41.0 °F /  5 °C 29.45in /  997.2hPa NW 7.0mph /  11.3km/h 9.0mph /  14.5km/h 91% 0.02in /  0.51mm
19:09 43.4 °F /  6.3 °C 40.9 °F /  4.9 °C 29.45in /  997.2hPa NW 3.0mph /  4.8km/h 10.0mph /  16.1km/h 91% 0.02in /  0.51mm
19:14 43.3 °F /  6.3 °C 40.8 °F /  4.9 °C 29.45in /  997.2hPa WNW 5.0mph /  8km/h 10.0mph /  16.1km/h 91% 0.02in /  0.51mm
19:19 43.1 °F /  6.2 °C 40.7 °F /  4.8 °C 29.45in /  997.2hPa WNW 6.0mph /  9.7km/h 12.0mph /  19.3km/h 91% 0.01in /  0.25mm
19:24 43.0 °F /  6.1 °C 40.6 °F /  4.8 °C 29.45in /  997.2hPa WNW 6.0mph /  9.7km/h 12.0mph /  19.3km/h 91% 0.01in /  0.25mm
19:29 42.9 °F /  6.1 °C 40.5 °F /  4.7 °C 29.45in /  997.2hPa WNW 5.0mph /  8km/h 12.0mph /  19.3km/h 91% 0.01in /  0.25mm
19:34 42.8 °F /  6 °C 40.4 °F /  4.7 °C 29.46in /  997.5hPa NW 5.0mph /  8km/h 12.0mph /  19.3km/h 91% 0.01in /  0.25mm
19:39 42.7 °F /  5.9 °C 40.3 °F /  4.6 °C 29.46in /  997.5hPa WNW 2.0mph /  3.2km/h 9.0mph /  14.5km/h 91% 0.01in /  0.25mm
19:44 42.6 °F /  5.9 °C 40.2 °F /  4.6 °C 29.46in /  997.5hPa West 3.0mph /  4.8km/h 11.0mph /  17.7km/h 91% 0.01in /  0.25mm
19:49 42.4 °F /  5.8 °C 40.0 °F /  4.4 °C 29.46in /  997.5hPa WNW 4.0mph /  6.4km/h 12.0mph /  19.3km/h 91% 0.01in /  0.25mm
19:54 42.4 °F /  5.8 °C 40.0 °F /  4.4 °C 29.47in /  997.9hPa NNW 4.0mph /  6.4km/h 11.0mph /  17.7km/h 91% 0.01in /  0.25mm
19:59 42.2 °F /  5.7 °C 39.8 °F /  4.3 °C 29.47in /  997.9hPa NW 7.0mph /  11.3km/h 14.0mph /  22.5km/h 91% 0.01in /  0.25mm
20:04 42.0 °F /  5.6 °C 39.6 °F /  4.2 °C 29.47in /  997.9hPa WNW 4.0mph /  6.4km/h 13.0mph /  20.9km/h 91% 0.01in /  0.25mm
20:09 41.8 °F /  5.4 °C 39.4 °F /  4.1 °C 29.47in /  997.9hPa WNW 5.0mph /  8km/h 12.0mph /  19.3km/h 91% 0.01in /  0.25mm
20:14 41.7 °F /  5.4 °C 39.3 °F /  4.1 °C 29.47in /  997.9hPa WNW 6.0mph /  9.7km/h 12.0mph /  19.3km/h 91% 0.01in /  0.25mm
20:19 41.6 °F /  5.3 °C 39.4 °F /  4.1 °C 29.48in /  998.2hPa NW 6.0mph /  9.7km/h 11.0mph /  17.7km/h 92% 0.01in /  0.25mm
20:24 41.5 °F /  5.3 °C 39.3 °F /  4.1 °C 29.48in /  998.2hPa WNW 6.0mph /  9.7km/h 14.0mph /  22.5km/h 92% 0.01in /  0.25mm
20:29 41.4 °F /  5.2 °C 39.0 °F /  3.9 °C 29.48in /  998.2hPa WNW 6.0mph /  9.7km/h 14.0mph /  22.5km/h 91% 0.02in /  0.51mm
20:34 41.2 °F /  5.1 °C 38.8 °F /  3.8 °C 29.48in /  998.2hPa WNW 7.0mph /  11.3km/h 13.0mph /  20.9km/h 91% 0.02in /  0.51mm
20:39 41.2 °F /  5.1 °C 39.1 °F /  3.9 °C 29.49in /  998.5hPa NW 7.0mph /  11.3km/h 13.0mph /  20.9km/h 92% 0.02in /  0.51mm
20:44 41.1 °F /  5.1 °C 39.0 °F /  3.9 °C 29.49in /  998.5hPa WNW 6.0mph /  9.7km/h 12.0mph /  19.3km/h 92% 0.02in /  0.51mm
20:49 41.1 °F /  5.1 °C 39.0 °F /  3.9 °C 29.49in /  998.5hPa NW 6.0mph /  9.7km/h 13.0mph /  20.9km/h 92% 0.02in /  0.51mm
20:54 41.1 °F /  5.1 °C 39.0 °F /  3.9 °C 29.49in /  998.5hPa NW 6.0mph /  9.7km/h 14.0mph /  22.5km/h 92% 0.02in /  0.51mm
20:59 41.1 °F /  5.1 °C 39.0 °F /  3.9 °C 29.49in /  998.5hPa WNW 5.0mph /  8km/h 14.0mph /  22.5km/h 92% 0.02in /  0.51mm
21:04 41.0 °F /  5 °C 38.9 °F /  3.8 °C 29.49in /  998.5hPa NNW 4.0mph /  6.4km/h 13.0mph /  20.9km/h 92% 0.02in /  0.51mm
21:09 40.9 °F /  4.9 °C 38.8 °F /  3.8 °C 29.49in /  998.5hPa WNW 3.0mph /  4.8km/h 12.0mph /  19.3km/h 92% 0.02in /  0.51mm
21:14 40.9 °F /  4.9 °C 38.8 °F /  3.8 °C 29.50in /  998.9hPa West 5.0mph /  8km/h 12.0mph /  19.3km/h 92% 0.02in /  0.51mm
21:19 40.9 °F /  4.9 °C 38.8 °F /  3.8 °C 29.50in /  998.9hPa NW 5.0mph /  8km/h 12.0mph /  19.3km/h 92% 0.02in /  0.51mm
21:24 40.9 °F /  4.9 °C 38.8 °F /  3.8 °C 29.50in /  998.9hPa WNW 6.0mph /  9.7km/h 12.0mph /  19.3km/h 92% 0.03in /  0.76mm
21:29 40.8 °F /  4.9 °C 38.7 °F /  3.7 °C 29.50in /  998.9hPa WNW 5.0mph /  8km/h 12.0mph /  19.3km/h 92% 0.02in /  0.51mm
21:34 40.7 °F /  4.8 °C 38.6 °F /  3.7 °C 29.50in /  998.9hPa West 5.0mph /  8km/h 8.0mph /  12.9km/h 92% 0.02in /  0.51mm
21:39 40.7 °F /  4.8 °C 38.6 °F /  3.7 °C 29.50in /  998.9hPa West 6.0mph /  9.7km/h 9.0mph /  14.5km/h 92% 0.02in /  0.51mm
21:44 40.7 °F /  4.8 °C 38.6 °F /  3.7 °C 29.50in /  998.9hPa WNW 11.0mph /  17.7km/h 11.0mph /  17.7km/h 92% 0.02in /  0.51mm
21:49 40.7 °F /  4.8 °C 38.8 °F /  3.8 °C 29.50in /  998.9hPa WNW 6.0mph /  9.7km/h 11.0mph /  17.7km/h 93% 0.02in /  0.51mm
21:54 40.7 °F /  4.8 °C 38.8 °F /  3.8 °C 29.51in /  999.2hPa WNW 5.0mph /  8km/h 11.0mph /  17.7km/h 93% 0.02in /  0.51mm
21:59 40.7 °F /  4.8 °C 38.8 °F /  3.8 °C 29.51in /  999.2hPa West 3.0mph /  4.8km/h 8.0mph /  12.9km/h 93% 0.01in /  0.25mm
22:04 40.6 °F /  4.8 °C 38.7 °F /  3.7 °C 29.51in /  999.2hPa NW 7.0mph /  11.3km/h 11.0mph /  17.7km/h 93% 0.01in /  0.25mm
22:09 40.6 °F /  4.8 °C 38.7 °F /  3.7 °C 29.51in /  999.2hPa West 6.0mph /  9.7km/h 9.0mph /  14.5km/h 93% 0.01in /  0.25mm
22:14 40.7 °F /  4.8 °C 38.8 °F /  3.8 °C 29.51in /  999.2hPa WNW 4.0mph /  6.4km/h 10.0mph /  16.1km/h 93% 0.01in /  0.25mm
22:19 40.6 °F /  4.8 °C 38.7 °F /  3.7 °C 29.51in /  999.2hPa WNW 5.0mph /  8km/h 10.0mph /  16.1km/h 93% 0.02in /  0.51mm
22:24 40.7 °F /  4.8 °C 38.8 °F /  3.8 °C 29.52in /  999.5hPa WNW 5.0mph /  8km/h 12.0mph /  19.3km/h 93% 0.01in /  0.25mm
22:29 40.6 °F /  4.8 °C 38.7 °F /  3.7 °C 29.52in /  999.5hPa WNW 5.0mph /  8km/h 12.0mph /  19.3km/h 93% 0.01in /  0.25mm
22:34 40.7 °F /  4.8 °C 38.8 °F /  3.8 °C 29.52in /  999.5hPa WNW 5.0mph /  8km/h 9.0mph /  14.5km/h 93% 0.01in /  0.25mm
22:39 40.6 °F /  4.8 °C 38.7 °F /  3.7 °C 29.52in /  999.5hPa WSW 5.0mph /  8km/h 8.0mph /  12.9km/h 93% 0.01in /  0.25mm
22:44 40.6 °F /  4.8 °C 38.7 °F /  3.7 °C 29.52in /  999.5hPa NNW 7.0mph /  11.3km/h 9.0mph /  14.5km/h 93% 0.01in /  0.25mm
22:49 40.6 °F /  4.8 °C 38.7 °F /  3.7 °C 29.52in /  999.5hPa NW 4.0mph /  6.4km/h 9.0mph /  14.5km/h 93% 0.01in /  0.25mm
22:54 40.6 °F /  4.8 °C 38.7 °F /  3.7 °C 29.52in /  999.5hPa NW 2.0mph /  3.2km/h 8.0mph /  12.9km/h 93% 0.02in /  0.51mm
22:59 40.6 °F /  4.8 °C 38.7 °F /  3.7 °C 29.52in /  999.5hPa NW 3.0mph /  4.8km/h 10.0mph /  16.1km/h 93% 0.02in /  0.51mm
23:04 40.6 °F /  4.8 °C 38.7 °F /  3.7 °C 29.52in /  999.5hPa WNW 3.0mph /  4.8km/h 8.0mph /  12.9km/h 93% 0.02in /  0.51mm
23:09 40.5 °F /  4.7 °C 38.6 °F /  3.7 °C 29.52in /  999.5hPa North 4.0mph /  6.4km/h 8.0mph /  12.9km/h 93% 0.02in /  0.51mm
23:14 40.4 °F /  4.7 °C 38.5 °F /  3.6 °C 29.52in /  999.5hPa WNW 7.0mph /  11.3km/h 7.0mph /  11.3km/h 93% 0.02in /  0.51mm
23:19 40.4 °F /  4.7 °C 38.5 °F /  3.6 °C 29.52in /  999.5hPa West 4.0mph /  6.4km/h 9.0mph /  14.5km/h 93% 0.02in /  0.51mm
23:24 40.5 °F /  4.7 °C 38.6 °F /  3.7 °C 29.52in /  999.5hPa NW 4.0mph /  6.4km/h 9.0mph /  14.5km/h 93% 0.02in /  0.51mm
23:29 40.4 °F /  4.7 °C 38.5 °F /  3.6 °C 29.52in /  999.5hPa WNW 4.0mph /  6.4km/h 10.0mph /  16.1km/h 93% 0.02in /  0.51mm
23:34 40.5 °F /  4.7 °C 38.6 °F /  3.7 °C 29.52in /  999.5hPa NW 4.0mph /  6.4km/h 10.0mph /  16.1km/h 93% 0.02in /  0.51mm
23:39 40.5 °F /  4.7 °C 38.6 °F /  3.7 °C 29.52in /  999.5hPa NW 3.0mph /  4.8km/h 9.0mph /  14.5km/h 93% 0.02in /  0.51mm
23:44 40.4 °F /  4.7 °C 38.5 °F /  3.6 °C 29.52in /  999.5hPa NW 4.0mph /  6.4km/h 9.0mph /  14.5km/h 93% 0.03in /  0.76mm
23:49 40.3 °F /  4.6 °C 38.4 °F /  3.6 °C 29.52in /  999.5hPa NW 4.0mph /  6.4km/h 9.0mph /  14.5km/h 93% 0.03in /  0.76mm
23:54 40.4 °F /  4.7 °C 38.5 °F /  3.6 °C 29.52in /  999.5hPa WNW 3.0mph /  4.8km/h 8.0mph /  12.9km/h 93% 0.02in /  0.51mm
23:59 40.3 °F /  4.6 °C 38.4 °F /  3.6 °C 29.52in /  999.5hPa West 4.0mph /  6.4km/h 8.0mph /  12.9km/h 93% 0.02in /  0.51mm
Buffalo, New York, USA
Compliments of Weather Underground - 2.5 mb